sensor_id;sensor_type;location;lat;lon;timestamp;pressure;altitude;pressure_sealevel;temperature;humidity
22775;BME280;11554;51.106;3.684;2022-09-09T00:00:00;100711.5;;;14.20;100.0
22775;BME280;11554;51.106;3.684;2022-09-09T00:05:04;100703.05;;;14.20;100.0
22775;BME280;11554;51.106;3.684;2022-09-09T00:10:03;100701.17;;;14.19;100.0
22775;BME280;11554;51.106;3.684;2022-09-09T00:15:03;100696.22;;;14.17;100.0
22775;BME280;11554;51.106;3.684;2022-09-09T00:20:01;100689.25;;;14.14;100.0
22775;BME280;11554;51.106;3.684;2022-09-09T00:25:02;100678.77;;;14.13;100.0
22775;BME280;11554;51.106;3.684;2022-09-09T00:30:02;100675.51999999999;;;14.08;100.0
22775;BME280;11554;51.106;3.684;2022-09-09T00:35:01;100673.32;;;14.00;100.0
22775;BME280;11554;51.106;3.684;2022-09-09T00:40:00;100668.55;;;13.97;100.0
22775;BME280;11554;51.106;3.684;2022-09-09T00:45:01;100668.1;;;13.95;100.0
22775;BME280;11554;51.106;3.684;2022-09-09T00:50:00;100663.03;;;13.94;100.0
22775;BME280;11554;51.106;3.684;2022-09-09T00:55:03;100654.1;;;13.85;100.0
22775;BME280;11554;51.106;3.684;2022-09-09T01:00:15;100643.12;;;13.86;100.0
22775;BME280;11554;51.106;3.684;2022-09-09T01:05:01;100635.94;;;13.83;100.0
22775;BME280;11554;51.106;3.684;2022-09-09T01:10:00;100623.78;;;13.84;100.0
22775;BME280;11554;51.106;3.684;2022-09-09T01:15:03;100622.24;;;13.76;100.0
22775;BME280;11554;51.106;3.684;2022-09-09T01:20:03;100624.31;;;13.74;100.0
22775;BME280;11554;51.106;3.684;2022-09-09T01:30:00;100617.43000000001;;;13.67;100.0
22775;BME280;11554;51.106;3.684;2022-09-09T01:35:00;100611.85;;;13.67;100.0
22775;BME280;11554;51.106;3.684;2022-09-09T01:40:00;100608.67;;;13.63;100.0
22775;BME280;11554;51.106;3.684;2022-09-09T01:45:00;100607.97;;;13.62;100.0
22775;BME280;11554;51.106;3.684;2022-09-09T01:50:00;100612.05;;;13.62;100.0
22775;BME280;11554;51.106;3.684;2022-09-09T01:55:00;100611.21;;;13.59;100.0
22775;BME280;11554;51.106;3.684;2022-09-09T02:00:01;100611.3;;;13.58;100.0
22775;BME280;11554;51.106;3.684;2022-09-09T02:05:03;100609.91;;;13.58;100.0
22775;BME280;11554;51.106;3.684;2022-09-09T02:10:02;100613.14;;;13.58;100.0
22775;BME280;11554;51.106;3.684;2022-09-09T02:15:02;100609.7;;;13.56;100.0
22775;BME280;11554;51.106;3.684;2022-09-09T02:20:03;100607.73000000001;;;13.54;100.0
22775;BME280;11554;51.106;3.684;2022-09-09T02:25:00;100609.52;;;13.57;100.0
22775;BME280;11554;51.106;3.684;2022-09-09T02:30:00;100605.67;;;13.65;100.0
22775;BME280;11554;51.106;3.684;2022-09-09T02:35:02;100599.75;;;13.73;100.0
22775;BME280;11554;51.106;3.684;2022-09-09T02:40:00;100593.19;;;13.78;100.0
22775;BME280;11554;51.106;3.684;2022-09-09T02:45:00;100602.06;;;13.80;100.0
22775;BME280;11554;51.106;3.684;2022-09-09T02:50:03;100603.56;;;13.88;100.0
22775;BME280;11554;51.106;3.684;2022-09-09T02:55:02;100604.88;;;13.91;100.0
22775;BME280;11554;51.106;3.684;2022-09-09T03:00:00;100596.72;;;13.90;100.0
22775;BME280;11554;51.106;3.684;2022-09-09T03:05:00;100588.37;;;13.89;100.0
22775;BME280;11554;51.106;3.684;2022-09-09T03:10:00;100591.04999999999;;;13.86;100.0
22775;BME280;11554;51.106;3.684;2022-09-09T03:15:00;100590.53;;;13.87;100.0
22775;BME280;11554;51.106;3.684;2022-09-09T03:20:00;100590.66;;;13.85;100.0
22775;BME280;11554;51.106;3.684;2022-09-09T03:25:00;100595.19;;;13.93;100.0
22775;BME280;11554;51.106;3.684;2022-09-09T03:30:00;100587.54000000001;;;13.94;100.0
22775;BME280;11554;51.106;3.684;2022-09-09T03:35:00;100576.73;;;13.95;100.0
22775;BME280;11554;51.106;3.684;2022-09-09T03:40:00;100561.44;;;14.02;100.0
22775;BME280;11554;51.106;3.684;2022-09-09T03:45:00;100556.45;;;14.09;100.0
22775;BME280;11554;51.106;3.684;2022-09-09T03:50:00;100556.62;;;14.07;100.0
22775;BME280;11554;51.106;3.684;2022-09-09T03:55:00;100548.49;;;14.12;100.0
22775;BME280;11554;51.106;3.684;2022-09-09T04:00:00;100546.06;;;14.14;100.0
22775;BME280;11554;51.106;3.684;2022-09-09T04:05:00;100540.38;;;14.13;100.0
22775;BME280;11554;51.106;3.684;2022-09-09T04:10:00;100538.11;;;14.09;100.0
22775;BME280;11554;51.106;3.684;2022-09-09T04:15:00;100537.37999999999;;;14.11;100.0
22775;BME280;11554;51.106;3.684;2022-09-09T04:20:00;100530.47;;;14.16;100.0
22775;BME280;11554;51.106;3.684;2022-09-09T04:25:00;100526.22;;;14.19;100.0
22775;BME280;11554;51.106;3.684;2022-09-09T04:30:00;100528.0;;;14.23;100.0
22775;BME280;11554;51.106;3.684;2022-09-09T04:35:00;100525.27;;;14.24;100.0
22775;BME280;11554;51.106;3.684;2022-09-09T04:40:00;100525.55;;;14.28;100.0
22775;BME280;11554;51.106;3.684;2022-09-09T04:45:00;100519.37000000001;;;14.27;100.0
22775;BME280;11554;51.106;3.684;2022-09-09T04:50:00;100521.42;;;14.26;100.0
22775;BME280;11554;51.106;3.684;2022-09-09T04:55:00;100519.17;;;14.25;100.0
22775;BME280;11554;51.106;3.684;2022-09-09T05:00:00;100523.19;;;14.28;100.0
22775;BME280;11554;51.106;3.684;2022-09-09T05:05:00;100523.42;;;14.34;100.0
22775;BME280;11554;51.106;3.684;2022-09-09T05:10:00;100517.42;;;14.35;100.0
22775;BME280;11554;51.106;3.684;2022-09-09T05:15:00;100512.28;;;14.37;100.0
22775;BME280;11554;51.106;3.684;2022-09-09T05:20:00;100506.33;;;14.41;100.0
22775;BME280;11554;51.106;3.684;2022-09-09T05:25:00;100504.38;;;14.42;100.0
22775;BME280;11554;51.106;3.684;2022-09-09T05:30:00;100498.33;;;14.47;100.0
22775;BME280;11554;51.106;3.684;2022-09-09T05:45:00;100492.14;;;14.60;100.0
22775;BME280;11554;51.106;3.684;2022-09-09T05:50:00;100492.21;;;14.72;100.0
22775;BME280;11554;51.106;3.684;2022-09-09T05:55:00;100495.33;;;14.80;100.0
22775;BME280;11554;51.106;3.684;2022-09-09T06:00:00;100504.19;;;14.82;100.0
22775;BME280;11554;51.106;3.684;2022-09-09T06:05:00;100506.52;;;14.83;100.0
22775;BME280;11554;51.106;3.684;2022-09-09T06:10:00;100513.86;;;14.83;100.0
22775;BME280;11554;51.106;3.684;2022-09-09T06:15:00;100492.62999999999;;;14.79;100.0
22775;BME280;11554;51.106;3.684;2022-09-09T06:20:00;100490.91;;;14.79;100.0
22775;BME280;11554;51.106;3.684;2022-09-09T06:25:00;100491.78;;;14.80;100.0
22775;BME280;11554;51.106;3.684;2022-09-09T06:30:00;100484.16;;;14.83;100.0
22775;BME280;11554;51.106;3.684;2022-09-09T06:35:00;100478.8;;;14.91;100.0
22775;BME280;11554;51.106;3.684;2022-09-09T06:40:00;100485.61;;;14.95;100.0
22775;BME280;11554;51.106;3.684;2022-09-09T06:45:00;100473.19;;;14.99;100.0
22775;BME280;11554;51.106;3.684;2022-09-09T06:50:00;100468.15000000001;;;15.14;100.0
22775;BME280;11554;51.106;3.684;2022-09-09T06:55:00;100461.13;;;15.44;100.0
22775;BME280;11554;51.106;3.684;2022-09-09T07:00:00;100463.64;;;16.12;100.0
22775;BME280;11554;51.106;3.684;2022-09-09T07:05:00;100449.97;;;16.79;100.0
22775;BME280;11554;51.106;3.684;2022-09-09T07:10:00;100452.78;;;16.88;100.0
22775;BME280;11554;51.106;3.684;2022-09-09T07:15:00;100449.17;;;16.89;100.0
22775;BME280;11554;51.106;3.684;2022-09-09T07:20:00;100457.4;;;17.11;100.0
22775;BME280;11554;51.106;3.684;2022-09-09T07:25:00;100451.22;;;16.72;100.0
22775;BME280;11554;51.106;3.684;2022-09-09T07:30:00;100454.63;;;16.68;100.0
22775;BME280;11554;51.106;3.684;2022-09-09T07:35:00;100451.72;;;16.78;100.0
22775;BME280;11554;51.106;3.684;2022-09-09T07:40:00;100448.72;;;16.90;100.0
22775;BME280;11554;51.106;3.684;2022-09-09T07:45:00;100442.52;;;17.35;100.0
22775;BME280;11554;51.106;3.684;2022-09-09T07:50:00;100442.36;;;17.37;100.0
22775;BME280;11554;51.106;3.684;2022-09-09T07:55:00;100449.47;;;17.05;100.0
22775;BME280;11554;51.106;3.684;2022-09-09T08:00:00;100454.67;;;16.72;100.0
22775;BME280;11554;51.106;3.684;2022-09-09T08:05:00;100465.45;;;16.51;100.0
22775;BME280;11554;51.106;3.684;2022-09-09T08:10:00;100465.4;;;16.37;100.0
22775;BME280;11554;51.106;3.684;2022-09-09T08:15:00;100485.28;;;16.17;100.0
22775;BME280;11554;51.106;3.684;2022-09-09T08:20:00;100485.86;;;16.11;100.0
22775;BME280;11554;51.106;3.684;2022-09-09T08:25:00;100490.92000000001;;;16.04;100.0
22775;BME280;11554;51.106;3.684;2022-09-09T08:30:00;100495.84;;;16.06;100.0
22775;BME280;11554;51.106;3.684;2022-09-09T08:35:00;100495.45000000001;;;15.96;100.0
22775;BME280;11554;51.106;3.684;2022-09-09T08:40:00;100502.81;;;15.87;100.0
22775;BME280;11554;51.106;3.684;2022-09-09T08:45:03;100502.5;;;15.87;100.0
22775;BME280;11554;51.106;3.684;2022-09-09T08:50:02;100503.19;;;16.04;100.0
22775;BME280;11554;51.106;3.684;2022-09-09T08:55:02;100501.42;;;16.07;100.0
22775;BME280;11554;51.106;3.684;2022-09-09T09:00:00;100512.66;;;16.01;100.0
22775;BME280;11554;51.106;3.684;2022-09-09T09:05:04;100523.38;;;16.08;100.0
22775;BME280;11554;51.106;3.684;2022-09-09T09:10:02;100526.17;;;16.28;100.0
22775;BME280;11554;51.106;3.684;2022-09-09T09:15:00;100527.0;;;16.35;100.0
22775;BME280;11554;51.106;3.684;2022-09-09T09:20:00;100531.95;;;16.67;100.0
22775;BME280;11554;51.106;3.684;2022-09-09T09:25:01;100529.78;;;17.18;100.0
22775;BME280;11554;51.106;3.684;2022-09-09T09:30:00;100536.11;;;17.37;100.0
22775;BME280;11554;51.106;3.684;2022-09-09T09:35:00;100545.67;;;17.35;100.0
22775;BME280;11554;51.106;3.684;2022-09-09T09:40:07;100539.73;;;17.48;100.0
22775;BME280;11554;51.106;3.684;2022-09-09T09:45:06;100549.57;;;17.70;100.0
22775;BME280;11554;51.106;3.684;2022-09-09T09:50:00;100548.29999999999;;;17.72;100.0
22775;BME280;11554;51.106;3.684;2022-09-09T09:55:02;100555.53;;;17.66;100.0
22775;BME280;11554;51.106;3.684;2022-09-09T10:00:00;100553.79000000001;;;17.61;100.0
22775;BME280;11554;51.106;3.684;2022-09-09T10:05:00;100550.05;;;17.67;100.0
22775;BME280;11554;51.106;3.684;2022-09-09T10:10:00;100556.12999999999;;;17.69;100.0
22775;BME280;11554;51.106;3.684;2022-09-09T10:15:01;100567.3;;;17.97;100.0
22775;BME280;11554;51.106;3.684;2022-09-09T10:20:04;100570.89;;;18.10;100.0
22775;BME280;11554;51.106;3.684;2022-09-09T10:30:01;100590.72;;;18.65;100.0
22775;BME280;11554;51.106;3.684;2022-09-09T10:35:02;100586.33;;;18.63;100.0
22775;BME280;11554;51.106;3.684;2022-09-09T10:40:02;100588.58;;;19.12;100.0
22775;BME280;11554;51.106;3.684;2022-09-09T10:45:04;100588.45;;;19.42;97.86
22775;BME280;11554;51.106;3.684;2022-09-09T10:50:08;100587.27;;;19.75;97.88
22775;BME280;11554;51.106;3.684;2022-09-09T10:55:01;100599.55;;;19.50;95.72
22775;BME280;11554;51.106;3.684;2022-09-09T11:00:03;100599.06;;;19.37;96.47
22775;BME280;11554;51.106;3.684;2022-09-09T11:05:00;100605.39;;;19.56;96.35
22775;BME280;11554;51.106;3.684;2022-09-09T11:10:01;100599.11;;;20.00;95.14
22775;BME280;11554;51.106;3.684;2022-09-09T11:15:02;100599.27;;;20.70;91.57
22775;BME280;11554;51.106;3.684;2022-09-09T11:20:00;100601.35;;;20.54;90.76
22775;BME280;11554;51.106;3.684;2022-09-09T11:25:01;100605.06;;;20.59;90.77
22775;BME280;11554;51.106;3.684;2022-09-09T11:30:05;100612.76000000001;;;20.67;90.25
22775;BME280;11554;51.106;3.684;2022-09-09T11:35:02;100613.48000000001;;;20.58;91.9
22775;BME280;11554;51.106;3.684;2022-09-09T11:45:08;100615.81;;;20.83;91.18
22775;BME280;11554;51.106;3.684;2022-09-09T11:50:08;100612.87999999999;;;20.69;94.69
22775;BME280;11554;51.106;3.684;2022-09-09T11:55:00;100618.92;;;20.57;92.51
22775;BME280;11554;51.106;3.684;2022-09-09T12:00:00;100624.47;;;22.01;91.34
22775;BME280;11554;51.106;3.684;2022-09-09T12:05:00;100630.0;;;22.72;85.31
22775;BME280;11554;51.106;3.684;2022-09-09T12:10:02;100636.81;;;22.29;84.85
22775;BME280;11554;51.106;3.684;2022-09-09T12:15:01;100632.06;;;23.04;82.24
22775;BME280;11554;51.106;3.684;2022-09-09T12:20:00;100647.41;;;22.07;84.43
22775;BME280;11554;51.106;3.684;2022-09-09T12:25:01;100645.19;;;22.32;82.42
22775;BME280;11554;51.106;3.684;2022-09-09T12:30:01;100637.31;;;22.02;82.13
22775;BME280;11554;51.106;3.684;2022-09-09T12:35:00;100642.13;;;21.28;85.34
22775;BME280;11554;51.106;3.684;2022-09-09T12:40:00;100625.12000000001;;;22.57;85.02
22775;BME280;11554;51.106;3.684;2022-09-09T12:45:00;100628.45;;;23.32;81.67
22775;BME280;11554;51.106;3.684;2022-09-09T12:50:00;100642.54;;;22.71;79.94
22775;BME280;11554;51.106;3.684;2022-09-09T12:55:00;100654.53;;;21.78;83.01
22775;BME280;11554;51.106;3.684;2022-09-09T13:00:10;100656.84;;;21.92;84.21
22775;BME280;11554;51.106;3.684;2022-09-09T13:05:05;100655.81;;;22.55;83.37
22775;BME280;11554;51.106;3.684;2022-09-09T13:10:00;100659.38;;;22.13;82.66
22775;BME280;11554;51.106;3.684;2022-09-09T13:15:00;100652.37;;;22.21;85.05
22775;BME280;11554;51.106;3.684;2022-09-09T13:20:00;100649.69;;;22.55;83.97
22775;BME280;11554;51.106;3.684;2022-09-09T13:25:00;100645.19;;;23.17;82.66
22775;BME280;11554;51.106;3.684;2022-09-09T13:30:00;100650.89;;;23.39;81.34
22775;BME280;11554;51.106;3.684;2022-09-09T13:35:00;100652.33;;;23.66;80.38
22775;BME280;11554;51.106;3.684;2022-09-09T13:40:00;100662.89;;;23.17;77.39
22775;BME280;11554;51.106;3.684;2022-09-09T13:45:00;100655.70999999999;;;22.23;80.02
22775;BME280;11554;51.106;3.684;2022-09-09T13:50:09;100666.95999999999;;;21.91;81.26
22775;BME280;11554;51.106;3.684;2022-09-09T13:55:00;100684.12;;;21.42;85.51
22775;BME280;11554;51.106;3.684;2022-09-09T14:00:00;100684.34999999999;;;20.43;92.87
22775;BME280;11554;51.106;3.684;2022-09-09T14:05:00;100683.65;;;19.76;97.42
22775;BME280;11554;51.106;3.684;2022-09-09T14:10:00;100676.22;;;19.33;99.33
22775;BME280;11554;51.106;3.684;2022-09-09T14:15:00;100678.12;;;19.31;99.84
22775;BME280;11554;51.106;3.684;2022-09-09T14:20:00;100674.95;;;19.72;100.0
22775;BME280;11554;51.106;3.684;2022-09-09T14:25:00;100681.69;;;20.49;100.0
22775;BME280;11554;51.106;3.684;2022-09-09T14:30:00;100685.35;;;20.20;98.92
22775;BME280;11554;51.106;3.684;2022-09-09T14:35:00;100692.85;;;19.56;99.06
22775;BME280;11554;51.106;3.684;2022-09-09T14:40:00;100706.95;;;18.84;99.61
22775;BME280;11554;51.106;3.684;2022-09-09T14:45:00;100714.33;;;18.19;100.0
22775;BME280;11554;51.106;3.684;2022-09-09T14:50:00;100694.69;;;18.03;100.0
22775;BME280;11554;51.106;3.684;2022-09-09T14:55:00;100701.5;;;17.99;100.0
22775;BME280;11554;51.106;3.684;2022-09-09T15:00:00;100695.58;;;18.11;100.0
22775;BME280;11554;51.106;3.684;2022-09-09T15:05:00;100700.55;;;18.33;100.0
22775;BME280;11554;51.106;3.684;2022-09-09T15:10:00;100705.03;;;18.46;100.0
22775;BME280;11554;51.106;3.684;2022-09-09T15:15:00;100706.07;;;18.52;100.0
22775;BME280;11554;51.106;3.684;2022-09-09T15:20:00;100712.94;;;18.52;100.0
22775;BME280;11554;51.106;3.684;2022-09-09T15:25:00;100714.17;;;19.39;100.0
22775;BME280;11554;51.106;3.684;2022-09-09T15:30:00;100717.7;;;19.34;100.0
22775;BME280;11554;51.106;3.684;2022-09-09T15:35:00;100707.56;;;18.84;100.0
22775;BME280;11554;51.106;3.684;2022-09-09T15:40:00;100717.90999999999;;;18.54;100.0
22775;BME280;11554;51.106;3.684;2022-09-09T15:45:00;100720.98;;;18.39;100.0
22775;BME280;11554;51.106;3.684;2022-09-09T15:50:00;100715.34;;;18.83;100.0
22775;BME280;11554;51.106;3.684;2022-09-09T15:55:00;100710.65999999999;;;19.33;100.0
22775;BME280;11554;51.106;3.684;2022-09-09T16:00:00;100711.46;;;19.18;100.0
22775;BME280;11554;51.106;3.684;2022-09-09T16:05:00;100708.4;;;19.41;100.0
22775;BME280;11554;51.106;3.684;2022-09-09T16:10:00;100709.52;;;19.82;100.0
22775;BME280;11554;51.106;3.684;2022-09-09T16:15:00;100709.11;;;19.20;100.0
22775;BME280;11554;51.106;3.684;2022-09-09T16:20:00;100711.39;;;19.68;100.0
22775;BME280;11554;51.106;3.684;2022-09-09T16:25:00;100718.79000000001;;;19.48;100.0
22775;BME280;11554;51.106;3.684;2022-09-09T16:30:00;100731.19;;;19.64;100.0
22775;BME280;11554;51.106;3.684;2022-09-09T16:35:00;100732.9;;;19.46;100.0
22775;BME280;11554;51.106;3.684;2022-09-09T16:40:00;100729.26999999999;;;19.46;100.0
22775;BME280;11554;51.106;3.684;2022-09-09T16:45:00;100740.48;;;19.26;100.0
22775;BME280;11554;51.106;3.684;2022-09-09T16:50:00;100745.28;;;19.13;100.0
22775;BME280;11554;51.106;3.684;2022-09-09T16:55:00;100750.26000000001;;;18.97;100.0
22775;BME280;11554;51.106;3.684;2022-09-09T17:00:00;100747.92;;;18.77;100.0
22775;BME280;11554;51.106;3.684;2022-09-09T17:05:00;100758.56;;;18.65;100.0
22775;BME280;11554;51.106;3.684;2022-09-09T17:10:00;100761.11;;;18.70;100.0
22775;BME280;11554;51.106;3.684;2022-09-09T17:15:00;100758.86;;;18.77;100.0
22775;BME280;11554;51.106;3.684;2022-09-09T17:20:00;100757.37000000001;;;18.67;100.0
22775;BME280;11554;51.106;3.684;2022-09-09T17:25:00;100769.72;;;18.66;100.0
22775;BME280;11554;51.106;3.684;2022-09-09T17:30:00;100776.78;;;18.54;100.0
22775;BME280;11554;51.106;3.684;2022-09-09T17:35:00;100779.21;;;18.52;100.0
22775;BME280;11554;51.106;3.684;2022-09-09T17:40:00;100779.22;;;18.25;100.0
22775;BME280;11554;51.106;3.684;2022-09-09T17:45:00;100785.65;;;18.03;100.0
22775;BME280;11554;51.106;3.684;2022-09-09T17:50:00;100787.97;;;17.78;100.0
22775;BME280;11554;51.106;3.684;2022-09-09T17:55:00;100792.85;;;17.67;100.0
22775;BME280;11554;51.106;3.684;2022-09-09T18:00:00;100798.14;;;17.58;100.0
22775;BME280;11554;51.106;3.684;2022-09-09T18:05:00;100804.4;;;17.47;100.0
22775;BME280;11554;51.106;3.684;2022-09-09T18:10:00;100806.28;;;17.37;100.0
22775;BME280;11554;51.106;3.684;2022-09-09T18:15:00;100811.58;;;17.27;100.0
22775;BME280;11554;51.106;3.684;2022-09-09T18:20:00;100817.75;;;17.16;100.0
22775;BME280;11554;51.106;3.684;2022-09-09T18:25:00;100818.59;;;16.98;100.0
22775;BME280;11554;51.106;3.684;2022-09-09T18:30:00;100827.17;;;16.75;100.0
22775;BME280;11554;51.106;3.684;2022-09-09T18:35:00;100825.7;;;16.56;100.0
22775;BME280;11554;51.106;3.684;2022-09-09T18:40:00;100831.78;;;16.41;100.0
22775;BME280;11554;51.106;3.684;2022-09-09T18:45:00;100835.29999999999;;;16.26;100.0
22775;BME280;11554;51.106;3.684;2022-09-09T18:50:00;100847.08;;;16.11;100.0
22775;BME280;11554;51.106;3.684;2022-09-09T18:55:00;100855.22;;;16.00;100.0
22775;BME280;11554;51.106;3.684;2022-09-09T19:00:00;100856.53;;;15.89;100.0
22775;BME280;11554;51.106;3.684;2022-09-09T19:05:00;100853.91;;;15.78;100.0
22775;BME280;11554;51.106;3.684;2022-09-09T19:10:00;100859.44;;;15.63;100.0
22775;BME280;11554;51.106;3.684;2022-09-09T19:15:00;100867.28;;;15.54;100.0
22775;BME280;11554;51.106;3.684;2022-09-09T19:20:00;100873.69;;;15.45;100.0
22775;BME280;11554;51.106;3.684;2022-09-09T19:25:00;100872.08;;;15.38;100.0
22775;BME280;11554;51.106;3.684;2022-09-09T19:30:00;100878.52;;;15.31;100.0
22775;BME280;11554;51.106;3.684;2022-09-09T19:35:00;100874.5;;;15.26;100.0
22775;BME280;11554;51.106;3.684;2022-09-09T19:40:00;100885.65999999999;;;15.20;100.0
22775;BME280;11554;51.106;3.684;2022-09-09T19:45:00;100891.4;;;15.16;100.0
22775;BME280;11554;51.106;3.684;2022-09-09T19:50:00;100896.7;;;15.14;100.0
22775;BME280;11554;51.106;3.684;2022-09-09T19:55:00;100898.06999999999;;;15.13;100.0
22775;BME280;11554;51.106;3.684;2022-09-09T20:00:00;100903.08;;;15.16;100.0
22775;BME280;11554;51.106;3.684;2022-09-09T20:05:00;100905.07;;;15.22;100.0
22775;BME280;11554;51.106;3.684;2022-09-09T20:10:00;100899.22;;;15.26;100.0
22775;BME280;11554;51.106;3.684;2022-09-09T20:15:00;100908.76;;;15.28;100.0
22775;BME280;11554;51.106;3.684;2022-09-09T20:20:00;100913.01;;;15.27;100.0
22775;BME280;11554;51.106;3.684;2022-09-09T20:25:00;100917.36;;;15.28;100.0
22775;BME280;11554;51.106;3.684;2022-09-09T20:30:00;100925.17;;;15.26;100.0
22775;BME280;11554;51.106;3.684;2022-09-09T20:35:00;100927.19;;;15.25;100.0
22775;BME280;11554;51.106;3.684;2022-09-09T20:40:00;100926.31999999999;;;15.20;100.0
22775;BME280;11554;51.106;3.684;2022-09-09T20:45:00;100921.83;;;15.16;100.0
22775;BME280;11554;51.106;3.684;2022-09-09T20:50:00;100934.91;;;15.13;100.0
22775;BME280;11554;51.106;3.684;2022-09-09T20:55:00;100928.53;;;15.17;100.0
22775;BME280;11554;51.106;3.684;2022-09-09T21:00:00;100931.02;;;15.16;100.0
22775;BME280;11554;51.106;3.684;2022-09-09T21:05:00;100923.64;;;15.18;100.0
22775;BME280;11554;51.106;3.684;2022-09-09T21:10:00;100923.24;;;15.18;100.0
22775;BME280;11554;51.106;3.684;2022-09-09T21:15:00;100923.75;;;15.21;100.0
22775;BME280;11554;51.106;3.684;2022-09-09T21:20:00;100920.53;;;15.18;100.0
22775;BME280;11554;51.106;3.684;2022-09-09T21:25:00;100921.08;;;15.19;100.0
22775;BME280;11554;51.106;3.684;2022-09-09T21:30:00;100925.17;;;15.23;100.0
22775;BME280;11554;51.106;3.684;2022-09-09T21:35:00;100930.3;;;15.22;100.0
22775;BME280;11554;51.106;3.684;2022-09-09T21:40:00;100938.98000000001;;;15.23;100.0
22775;BME280;11554;51.106;3.684;2022-09-09T21:45:00;100940.81999999999;;;15.26;100.0
22775;BME280;11554;51.106;3.684;2022-09-09T21:50:00;100942.52;;;15.27;100.0
22775;BME280;11554;51.106;3.684;2022-09-09T21:55:00;100935.49;;;15.25;100.0
22775;BME280;11554;51.106;3.684;2022-09-09T22:00:00;100933.8;;;15.24;100.0
22775;BME280;11554;51.106;3.684;2022-09-09T22:05:00;100923.32;;;15.21;100.0
22775;BME280;11554;51.106;3.684;2022-09-09T22:10:00;100926.98000000001;;;15.20;100.0
22775;BME280;11554;51.106;3.684;2022-09-09T22:15:00;100933.76;;;15.18;100.0
22775;BME280;11554;51.106;3.684;2022-09-09T22:20:00;100935.38;;;15.17;100.0
22775;BME280;11554;51.106;3.684;2022-09-09T22:25:00;100935.13;;;15.13;100.0
22775;BME280;11554;51.106;3.684;2022-09-09T22:30:00;100937.36;;;15.07;100.0
22775;BME280;11554;51.106;3.684;2022-09-09T22:35:00;100933.81000000001;;;15.00;100.0
22775;BME280;11554;51.106;3.684;2022-09-09T22:40:00;100934.11;;;14.97;100.0
22775;BME280;11554;51.106;3.684;2022-09-09T22:45:00;100938.81;;;14.99;100.0
22775;BME280;11554;51.106;3.684;2022-09-09T22:50:00;100944.87000000001;;;15.01;100.0
22775;BME280;11554;51.106;3.684;2022-09-09T22:55:00;100943.62999999999;;;15.01;100.0
22775;BME280;11554;51.106;3.684;2022-09-09T23:00:00;100941.53;;;14.96;100.0
22775;BME280;11554;51.106;3.684;2022-09-09T23:05:00;100943.17;;;14.93;100.0
22775;BME280;11554;51.106;3.684;2022-09-09T23:10:00;100935.65999999999;;;14.93;100.0
22775;BME280;11554;51.106;3.684;2022-09-09T23:15:00;100939.72;;;14.95;100.0
22775;BME280;11554;51.106;3.684;2022-09-09T23:20:00;100939.58;;;14.99;100.0
22775;BME280;11554;51.106;3.684;2022-09-09T23:25:00;100937.92;;;15.02;100.0
22775;BME280;11554;51.106;3.684;2022-09-09T23:30:00;100940.25;;;15.04;100.0
22775;BME280;11554;51.106;3.684;2022-09-09T23:35:00;100944.2;;;15.04;100.0
22775;BME280;11554;51.106;3.684;2022-09-09T23:40:00;100944.58;;;15.06;100.0
22775;BME280;11554;51.106;3.684;2022-09-09T23:45:00;100939.31;;;15.06;100.0
22775;BME280;11554;51.106;3.684;2022-09-09T23:50:00;100940.48;;;15.05;100.0
22775;BME280;11554;51.106;3.684;2022-09-09T23:55:00;100940.55;;;15.02;100.0
